Terminal Aerodrome Forecast
Issued by NWS Portland, OR

Home | Current Version | Previous Version | Text Only | Print | Product List | Glossary On
Versions: 1 2 3 4 5 6 7 8 9 10 11 12 13 14 15 16 17 18 19 20 21 22 23 24 25 26
000
FTUS46 KPQR 232321
TAFEUG
TAF
KEUG 232321Z 2400/2424 17010KT P6SM SCT040 OVC080
     FM240200 17009KT P6SM -SN SCT025 BKN035 OVC045
     FM240400 17009KT 5SM -RASN BKN015 BKN025 OVC040
     FM240800 19010KT P6SM -RA SCT015 BKN025 OVC040
     FM241500 25015KT P6SM -SHRA SCT015 BKN025 OVC040
     FM241700 26013KT P6SM -SHRA SCT025 BKN035 OVC045=

USA.gov is the U.S. government's official web portal to all federal, state and local government web resources and services.